createdAt,value
2023-01-19T00:54:35.919Z,25.99
2023-01-19T00:55:35.871Z,26.02
2023-01-19T00:56:35.820Z,26.03
2023-01-19T00:57:35.783Z,26.01
2023-01-19T00:58:35.748Z,25.99
2023-01-19T00:59:35.695Z,25.94
2023-01-19T01:00:35.645Z,25.98
2023-01-19T01:01:45.851Z,25.97
2023-01-19T01:03:35.554Z,26.02
2023-01-19T01:04:35.483Z,26.01
2023-01-19T01:05:35.425Z,26.01
2023-01-19T01:06:35.405Z,25.98
2023-01-19T01:07:35.345Z,26.03
2023-01-19T01:08:35.295Z,26.02
2023-01-19T01:09:35.271Z,25.99
2023-01-19T01:10:35.205Z,26.06
2023-01-19T01:11:35.160Z,25.98
2023-01-19T01:12:35.127Z,26.01
2023-01-19T01:13:35.081Z,25.99
2023-01-19T01:14:35.030Z,26.02
2023-01-19T01:15:34.993Z,26.02
2023-01-19T01:16:34.968Z,26.01
2023-01-19T01:17:34.888Z,26.02
2023-01-19T01:18:34.843Z,26.01
2023-01-19T01:19:34.796Z,26.02
2023-01-19T01:20:34.806Z,25.99
2023-01-19T01:21:34.722Z,25.99
2023-01-19T01:22:34.668Z,26.01
2023-01-19T01:23:34.624Z,26.02
2023-01-19T01:24:34.572Z,26.02
2023-01-19T01:25:34.522Z,26.02
2023-01-19T01:26:34.502Z,26.05
2023-01-19T01:27:34.444Z,26.01
2023-01-19T01:28:34.395Z,26.01
2023-01-19T01:29:34.343Z,25.98
2023-01-19T01:30:34.305Z,26.01
2023-01-19T01:31:34.301Z,26.01
2023-01-19T01:32:34.229Z,25.97
2023-01-19T01:33:40.847Z,25.99
2023-01-19T01:34:34.126Z,25.99
2023-01-19T01:35:34.085Z,25.98
2023-01-19T01:36:34.040Z,25.99
2023-01-19T01:37:34.039Z,26.01
2023-01-19T01:38:33.956Z,26.01
2023-01-19T01:39:33.910Z,25.99
2023-01-19T01:40:33.899Z,26.01
2023-01-19T01:41:33.827Z,25.99
2023-01-19T01:42:33.809Z,25.95
2023-01-19T01:43:33.740Z,26.01
2023-01-19T01:44:33.687Z,25.96
2023-01-19T01:45:33.744Z,25.96
2023-01-19T01:46:33.601Z,25.97
2023-01-19T01:47:33.561Z,25.98
2023-01-19T01:48:33.512Z,25.98
2023-01-19T01:49:33.458Z,25.96
2023-01-19T01:50:33.421Z,25.96
2023-01-19T01:51:33.364Z,25.96
2023-01-19T01:52:33.314Z,25.95
2023-01-19T01:53:33.267Z,25.97
2023-01-19T01:54:33.233Z,25.99
2023-01-19T01:55:33.171Z,26.00
2023-01-19T01:56:33.124Z,25.96
2023-01-19T01:57:33.076Z,25.96
2023-01-19T01:58:33.032Z,25.92
2023-01-19T01:59:32.981Z,25.96
2023-01-19T02:00:32.933Z,25.94
2023-01-19T02:01:32.997Z,26.00
2023-01-19T02:02:32.837Z,25.98
2023-01-19T02:03:32.839Z,25.94
2023-01-19T02:04:32.743Z,25.99
2023-01-19T02:05:32.702Z,25.96
2023-01-19T02:06:32.669Z,25.99
2023-01-19T02:07:32.607Z,25.95
2023-01-19T02:08:32.570Z,25.96
2023-01-19T02:09:32.525Z,25.96
2023-01-19T02:10:32.494Z,25.98
2023-01-19T02:11:32.441Z,25.95
2023-01-19T02:12:32.404Z,25.93
2023-01-19T02:13:32.357Z,25.99
2023-01-19T02:14:32.325Z,25.96
2023-01-19T02:15:32.274Z,25.98
2023-01-19T02:16:32.290Z,25.96
2023-01-19T02:17:32.192Z,25.95
2023-01-19T02:18:32.161Z,25.94
2023-01-19T02:19:32.104Z,25.96
2023-01-19T02:20:32.061Z,25.96
2023-01-19T02:21:32.028Z,25.95
2023-01-19T02:22:31.984Z,25.91
2023-01-19T02:23:31.946Z,25.95
2023-01-19T02:24:31.902Z,25.93
2023-01-19T02:25:31.860Z,25.94
2023-01-19T02:26:31.824Z,25.95
2023-01-19T02:27:31.779Z,25.93
2023-01-19T02:28:31.778Z,25.91
2023-01-19T02:29:31.695Z,25.92
2023-01-19T02:30:31.711Z,25.92
2023-01-19T02:31:31.609Z,25.93
2023-01-19T02:32:31.584Z,25.95
2023-01-19T02:33:31.534Z,25.95
2023-01-19T02:34:31.485Z,25.92
2023-01-19T02:35:31.436Z,25.95
2023-01-19T02:36:31.406Z,25.91
2023-01-19T02:37:31.354Z,25.93
2023-01-19T02:38:31.323Z,25.91
2023-01-19T02:39:31.271Z,25.92
2023-01-19T02:40:31.223Z,25.88
2023-01-19T02:41:31.181Z,25.91
2023-01-19T02:42:31.139Z,25.92
2023-01-19T02:43:31.106Z,25.93
2023-01-19T02:44:31.058Z,25.85
2023-01-19T02:45:31.008Z,25.89
2023-01-19T02:46:30.964Z,25.92
2023-01-19T02:47:30.922Z,25.91
2023-01-19T02:48:30.900Z,25.92
2023-01-19T02:49:30.851Z,25.85
2023-01-19T02:50:32.113Z,25.90
2023-01-19T02:51:30.773Z,25.95
2023-01-19T02:52:30.733Z,25.91
2023-01-19T02:53:30.689Z,25.91
2023-01-19T02:54:30.677Z,25.92
2023-01-19T02:55:30.613Z,25.91
2023-01-19T02:56:30.570Z,25.93
2023-01-19T02:57:30.535Z,25.92
2023-01-19T02:58:30.500Z,25.89
2023-01-19T02:59:30.467Z,25.92
2023-01-19T03:00:30.431Z,25.87
2023-01-19T03:01:30.501Z,25.91
2023-01-19T03:02:30.350Z,25.88
2023-01-19T03:03:30.298Z,25.85
2023-01-19T03:04:30.264Z,25.85
2023-01-19T03:05:30.227Z,25.88
2023-01-19T03:06:30.174Z,25.95
2023-01-19T03:07:30.144Z,25.87
2023-01-19T03:08:30.109Z,25.88
2023-01-19T03:09:30.066Z,25.88
2023-01-19T03:10:30.029Z,25.88
2023-01-19T03:11:29.997Z,25.85
2023-01-19T03:12:29.937Z,25.88
2023-01-19T03:13:29.904Z,25.91
2023-01-19T03:14:29.856Z,25.84
2023-01-19T03:15:29.856Z,25.88
2023-01-19T03:16:29.805Z,25.91
2023-01-19T03:17:29.726Z,25.89
2023-01-19T03:18:29.680Z,25.88
2023-01-19T03:19:29.650Z,25.87
2023-01-19T03:20:29.611Z,25.91
2023-01-19T03:21:29.576Z,25.91
2023-01-19T03:22:29.572Z,25.87
2023-01-19T03:23:29.533Z,25.88
2023-01-19T03:24:29.494Z,25.87
2023-01-19T03:25:29.444Z,25.88
2023-01-19T03:26:29.403Z,25.85
2023-01-19T03:27:29.383Z,25.83
2023-01-19T03:28:29.376Z,25.87
2023-01-19T03:29:29.320Z,25.92
2023-01-19T03:30:29.257Z,25.88
2023-01-19T03:31:29.221Z,25.89
2023-01-19T03:32:29.192Z,25.85
2023-01-19T03:33:29.161Z,25.84
2023-01-19T03:34:29.115Z,25.91
2023-01-19T03:35:29.081Z,25.85
2023-01-19T03:36:29.050Z,25.87
2023-01-19T03:37:29.007Z,25.88
2023-01-19T03:38:28.974Z,25.84
2023-01-19T03:39:28.984Z,25.88
2023-01-19T03:40:28.933Z,25.84
2023-01-19T03:41:28.864Z,25.85
2023-01-19T03:42:28.835Z,25.85
2023-01-19T03:43:28.799Z,25.88
2023-01-19T03:44:28.758Z,25.90
2023-01-19T03:45:28.713Z,25.84
2023-01-19T03:46:28.739Z,25.90
2023-01-19T03:47:28.636Z,25.88
2023-01-19T03:48:28.591Z,25.91
2023-01-19T03:49:28.579Z,25.87
2023-01-19T03:50:28.532Z,25.89
2023-01-19T03:51:28.500Z,25.87
2023-01-19T03:52:28.452Z,25.89
2023-01-19T03:53:28.400Z,25.85
2023-01-19T03:54:28.363Z,25.87
2023-01-19T03:55:28.329Z,25.81
2023-01-19T03:56:28.274Z,25.83
2023-01-19T03:57:28.241Z,25.87
2023-01-19T03:58:28.191Z,25.81
2023-01-19T03:59:28.153Z,25.88
2023-01-19T04:00:28.188Z,25.84
2023-01-19T04:01:28.231Z,25.82
2023-01-19T04:02:28.116Z,25.85
2023-01-19T04:03:27.999Z,25.84
2023-01-19T04:04:27.952Z,25.89
2023-01-19T04:05:27.920Z,25.84
2023-01-19T04:06:27.877Z,25.88
2023-01-19T04:07:27.842Z,25.87
2023-01-19T04:08:27.803Z,25.81
2023-01-19T04:09:27.772Z,25.85
2023-01-19T04:10:27.735Z,25.86
2023-01-19T04:11:27.685Z,25.84
2023-01-19T04:12:27.641Z,25.88
2023-01-19T04:13:27.599Z,25.85
2023-01-19T04:14:27.560Z,25.89
2023-01-19T04:15:27.533Z,25.85
2023-01-19T04:16:27.534Z,25.83
2023-01-19T04:17:27.451Z,25.78
2023-01-19T04:18:27.406Z,25.82
2023-01-19T04:19:27.369Z,25.82
2023-01-19T04:20:27.321Z,25.88
2023-01-19T04:21:27.283Z,25.87
2023-01-19T04:22:27.247Z,25.85
2023-01-19T04:23:27.224Z,25.84
2023-01-19T04:24:27.169Z,25.85
2023-01-19T04:25:27.122Z,25.81
2023-01-19T04:26:27.076Z,25.81
2023-01-19T04:27:27.042Z,25.80
2023-01-19T04:28:26.993Z,25.84
2023-01-19T04:29:26.949Z,25.82
2023-01-19T04:30:26.894Z,25.85
2023-01-19T04:31:26.859Z,25.84
2023-01-19T04:32:26.810Z,25.81
2023-01-19T04:33:26.763Z,25.85
2023-01-19T04:34:26.732Z,25.81
2023-01-19T04:35:26.689Z,25.82
2023-01-19T04:36:26.624Z,25.84
2023-01-19T04:37:26.600Z,25.85
2023-01-19T04:38:26.579Z,25.85
2023-01-19T04:39:26.522Z,25.88
2023-01-19T04:40:26.509Z,25.84
2023-01-19T04:41:26.437Z,25.82
2023-01-19T04:42:26.402Z,25.85
2023-01-19T04:43:26.365Z,25.82
2023-01-19T04:44:26.320Z,25.82
2023-01-19T04:45:26.290Z,25.82
2023-01-19T04:46:26.269Z,25.84
2023-01-19T04:47:26.206Z,25.85
2023-01-19T04:48:26.163Z,25.84
2023-01-19T04:49:26.136Z,25.78
2023-01-19T04:50:26.092Z,25.81
2023-01-19T04:51:26.064Z,25.80
2023-01-19T04:52:26.022Z,25.79
2023-01-19T04:53:25.995Z,25.88
2023-01-19T04:54:26.030Z,25.81
2023-01-19T04:55:25.919Z,25.84
2023-01-19T04:56:25.891Z,25.82
2023-01-19T04:57:25.838Z,25.77
2023-01-19T04:58:25.809Z,25.85
2023-01-19T04:59:25.767Z,25.81
2023-01-19T05:00:25.735Z,25.89
2023-01-19T05:01:25.784Z,25.84
2023-01-19T05:02:25.658Z,25.85
2023-01-19T05:03:26.607Z,25.79
2023-01-19T05:04:25.599Z,25.82
2023-01-19T05:05:25.555Z,25.86
2023-01-19T05:06:25.530Z,25.82
2023-01-19T05:07:25.501Z,25.80
2023-01-19T05:08:25.452Z,25.84
2023-01-19T05:09:25.413Z,25.77
2023-01-19T05:10:25.378Z,25.82
2023-01-19T05:11:25.346Z,25.85
2023-01-19T05:12:25.309Z,25.81
2023-01-19T05:13:25.277Z,25.88
2023-01-19T05:14:25.244Z,25.82
2023-01-19T05:15:25.207Z,25.85
2023-01-19T05:16:25.263Z,25.82
2023-01-19T05:17:25.124Z,25.80
2023-01-19T05:18:25.093Z,25.84
2023-01-19T05:19:25.103Z,25.81
2023-01-19T05:20:25.021Z,25.82
2023-01-19T05:21:24.986Z,25.79
2023-01-19T05:22:24.946Z,25.78
2023-01-19T05:23:24.917Z,25.81
2023-01-19T05:24:24.878Z,25.78
2023-01-19T05:25:24.835Z,25.74
2023-01-19T05:26:24.797Z,25.78
2023-01-19T05:27:24.760Z,25.81
2023-01-19T05:28:24.719Z,25.78
2023-01-19T05:29:24.686Z,25.85
2023-01-19T05:30:24.648Z,25.85
2023-01-19T05:31:24.709Z,25.77
2023-01-19T05:32:24.563Z,25.81
2023-01-19T05:33:24.520Z,25.81
2023-01-19T05:34:24.494Z,25.82
2023-01-19T05:35:35.208Z,25.84
2023-01-19T05:36:25.411Z,25.75
2023-01-19T05:37:24.376Z,25.78
2023-01-19T05:38:34.482Z,25.78
2023-01-19T05:39:25.299Z,25.81
2023-01-19T05:40:24.260Z,25.78
2023-01-19T05:41:24.231Z,25.79
2023-01-19T05:42:24.185Z,25.77
2023-01-19T05:43:24.144Z,25.80
2023-01-19T05:44:24.104Z,25.78
2023-01-19T05:45:24.071Z,25.75
2023-01-19T05:46:24.025Z,25.71
2023-01-19T05:47:23.985Z,25.75
2023-01-19T05:48:23.950Z,25.74
2023-01-19T05:49:23.900Z,25.74
2023-01-19T05:50:23.865Z,25.74
2023-01-19T05:51:23.832Z,25.73
2023-01-19T05:52:23.775Z,25.75
2023-01-19T05:53:23.738Z,25.73
2023-01-19T05:54:23.698Z,25.74
2023-01-19T05:55:23.665Z,25.74
2023-01-19T05:56:23.635Z,25.69
2023-01-19T05:57:23.580Z,25.70
2023-01-19T05:58:23.541Z,25.69
2023-01-19T05:59:23.500Z,25.75
2023-01-19T06:00:23.455Z,25.71
2023-01-19T06:01:23.458Z,25.67
2023-01-19T06:02:23.424Z,25.69
2023-01-19T06:03:23.398Z,25.73
2023-01-19T06:04:23.281Z,25.74
2023-01-19T06:05:23.241Z,25.65
2023-01-19T06:06:23.207Z,25.70
2023-01-19T06:07:24.381Z,25.70
2023-01-19T06:08:23.124Z,25.66
2023-01-19T06:09:23.085Z,25.70
2023-01-19T06:10:23.046Z,25.69
2023-01-19T06:11:23.031Z,25.66
2023-01-19T06:12:22.974Z,25.70
2023-01-19T06:13:22.944Z,25.70
2023-01-19T06:14:22.885Z,25.67
2023-01-19T06:15:22.850Z,25.65
2023-01-19T06:16:22.826Z,25.67
2023-01-19T06:17:22.780Z,25.70
2023-01-19T06:18:22.744Z,25.66
2023-01-19T06:19:22.694Z,25.74
2023-01-19T06:20:22.656Z,25.69
2023-01-19T06:21:22.619Z,25.70
2023-01-19T06:22:22.582Z,25.66
2023-01-19T06:23:22.550Z,25.70
2023-01-19T06:24:22.492Z,25.70
2023-01-19T06:25:22.449Z,25.66
2023-01-19T06:26:22.413Z,25.69
2023-01-19T06:27:22.384Z,25.64
2023-01-19T06:28:22.936Z,25.66
2023-01-19T06:29:22.306Z,25.65
2023-01-19T06:30:22.299Z,25.69
2023-01-19T06:31:22.288Z,25.70
2023-01-19T06:32:22.188Z,25.63
2023-01-19T06:33:22.133Z,25.66
2023-01-19T06:34:22.088Z,25.69
2023-01-19T06:35:22.059Z,25.67
2023-01-19T06:36:22.002Z,25.69
2023-01-19T06:37:21.975Z,25.70
2023-01-19T06:38:21.951Z,25.70
2023-01-19T06:39:21.877Z,25.67
2023-01-19T06:40:21.838Z,25.70
2023-01-19T06:41:21.802Z,25.71
2023-01-19T06:42:21.742Z,25.70
2023-01-19T06:43:21.705Z,25.75
2023-01-19T06:44:21.661Z,25.70
2023-01-19T06:45:21.623Z,25.76
2023-01-19T06:46:21.593Z,25.71
2023-01-19T06:47:21.551Z,25.77
2023-01-19T06:48:21.507Z,25.78
2023-01-19T06:49:21.464Z,25.71
2023-01-19T06:50:21.431Z,26.73
2023-01-19T06:51:21.415Z,26.87
2023-01-19T06:52:21.360Z,27.12
2023-01-19T06:53:21.303Z,27.41
2023-01-19T06:54:21.268Z,27.47
2023-01-19T06:55:21.217Z,27.50
2023-01-19T06:56:21.195Z,27.55
2023-01-19T06:57:21.137Z,27.81
2023-01-19T06:58:21.094Z,28.18
2023-01-19T06:59:21.040Z,28.32
2023-01-19T07:00:21.001Z,28.45
2023-01-19T07:01:21.066Z,28.68
2023-01-19T07:02:26.997Z,28.96
2023-01-19T07:03:21.983Z,29.04
2023-01-19T07:04:20.821Z,29.00
2023-01-19T07:05:20.770Z,29.15
2023-01-19T07:06:20.780Z,29.46
2023-01-19T07:07:20.693Z,29.71
2023-01-19T07:08:20.625Z,29.78
2023-01-19T07:09:20.578Z,29.77
2023-01-19T07:10:20.518Z,29.78
2023-01-19T07:11:26.218Z,30.14
2023-01-19T07:12:21.480Z,30.09
2023-01-19T07:13:20.376Z,30.40
2023-01-19T07:14:20.322Z,30.48
2023-01-19T07:15:20.279Z,30.49
2023-01-19T07:16:20.245Z,30.78
2023-01-19T07:17:20.173Z,30.72
2023-01-19T07:18:20.124Z,30.84
2023-01-19T07:19:20.091Z,31.05
2023-01-19T07:20:20.028Z,31.13
2023-01-19T07:21:19.993Z,31.25
2023-01-19T07:22:19.952Z,31.37
2023-01-19T07:23:19.881Z,31.50
2023-01-19T07:24:19.851Z,31.51
2023-01-19T07:25:19.784Z,31.75
2023-01-19T07:26:19.750Z,31.48
2023-01-19T07:27:19.720Z,31.78
2023-01-19T07:28:19.657Z,31.86
2023-01-19T07:29:19.595Z,31.97
2023-01-19T07:30:19.551Z,31.99
2023-01-19T07:31:19.636Z,32.18
2023-01-19T07:32:19.466Z,32.11
2023-01-19T07:33:19.425Z,32.37
2023-01-19T07:34:19.355Z,32.10
2023-01-19T07:35:19.297Z,32.53
2023-01-19T07:36:19.252Z,32.49
2023-01-19T07:37:19.205Z,32.57
2023-01-19T07:38:19.155Z,32.50
2023-01-19T07:39:19.098Z,32.50
2023-01-19T07:40:19.088Z,32.74
2023-01-19T07:41:19.005Z,32.73
2023-01-19T07:42:18.992Z,33.18
2023-01-19T07:43:18.901Z,33.07
2023-01-19T07:44:18.859Z,32.57
2023-01-19T07:45:18.812Z,31.82
2023-01-19T07:46:18.802Z,31.04
2023-01-19T07:47:18.692Z,29.56
2023-01-19T07:48:18.659Z,28.28
2023-01-19T07:49:18.603Z,26.13
2023-01-19T07:50:18.567Z,25.88
2023-01-19T07:51:18.504Z,26.03
2023-01-19T07:52:18.472Z,25.91
2023-01-19T07:53:18.449Z,24.36
2023-01-19T07:54:18.365Z,24.07
2023-01-19T07:55:18.331Z,22.90
2023-01-19T07:56:18.299Z,24.50
2023-01-19T07:57:18.231Z,24.11
2023-01-19T07:58:18.199Z,22.72
2023-01-19T07:59:18.168Z,22.45
2023-01-19T08:00:18.131Z,22.12
2023-01-19T08:01:18.179Z,22.59
2023-01-19T08:02:18.170Z,21.59
2023-01-19T08:03:18.015Z,21.79
2023-01-19T08:04:17.993Z,21.45
2023-01-19T08:05:17.936Z,20.58
2023-01-19T08:06:17.953Z,20.84
2023-01-19T08:07:17.873Z,18.13
2023-01-19T08:08:17.847Z,19.77
2023-01-19T08:09:17.808Z,20.16
2023-01-19T08:10:17.771Z,19.28
2023-01-19T08:11:17.738Z,20.81
2023-01-19T08:12:17.751Z,21.62
2023-01-19T08:13:17.678Z,22.12
2023-01-19T08:14:17.638Z,22.40
2023-01-19T08:15:17.582Z,23.09
2023-01-19T08:16:17.549Z,23.23
2023-01-19T08:17:17.505Z,23.46
2023-01-19T08:18:17.472Z,23.59
2023-01-19T08:19:17.440Z,24.02
2023-01-19T08:20:17.388Z,24.05
2023-01-19T08:21:17.342Z,24.40
2023-01-19T08:22:17.311Z,24.50
2023-01-19T08:23:17.278Z,24.46
2023-01-19T08:24:17.282Z,24.55
2023-01-19T08:25:17.207Z,24.68
2023-01-19T08:26:17.156Z,25.07
2023-01-19T08:27:17.113Z,25.31
2023-01-19T08:28:17.127Z,25.10
2023-01-19T08:29:17.071Z,25.39
2023-01-19T08:30:16.989Z,25.38
2023-01-19T08:31:21.083Z,25.71
2023-01-19T08:32:18.089Z,25.90
2023-01-19T08:33:16.857Z,26.12
2023-01-19T08:34:16.826Z,25.95
2023-01-19T08:35:16.769Z,26.14
2023-01-19T08:36:16.721Z,26.49
2023-01-19T08:37:16.696Z,26.57
2023-01-19T08:38:16.627Z,26.86
2023-01-19T08:39:16.587Z,26.91
2023-01-19T08:40:16.557Z,27.29
2023-01-19T08:41:16.512Z,27.05
2023-01-19T08:42:16.455Z,27.44
2023-01-19T08:43:16.402Z,27.40
2023-01-19T08:44:16.366Z,27.64
2023-01-19T08:45:16.458Z,27.83
2023-01-19T08:46:16.323Z,27.55
2023-01-19T08:47:16.257Z,27.52
2023-01-19T08:48:16.222Z,27.48
2023-01-19T08:49:16.163Z,27.45
2023-01-19T08:50:16.133Z,27.38
2023-01-19T08:51:16.060Z,27.36
2023-01-19T08:52:16.001Z,27.29
2023-01-19T08:53:15.958Z,27.24
2023-01-19T08:54:18.269Z,27.21
2023-01-19T08:55:16.100Z,27.12
2023-01-19T08:56:16.075Z,27.12
2023-01-19T08:57:16.017Z,27.06
2023-01-19T08:58:15.997Z,27.00
2023-01-19T08:59:15.940Z,27.03
2023-01-19T09:00:15.901Z,26.97
2023-01-19T09:01:15.947Z,26.95
2023-01-19T09:02:15.984Z,26.89
2023-01-19T09:03:15.791Z,26.85
2023-01-19T09:04:15.842Z,26.78
2023-01-19T09:05:15.683Z,26.79
2023-01-19T09:06:15.637Z,26.80
2023-01-19T09:07:15.615Z,26.75
2023-01-19T09:08:15.580Z,26.71
2023-01-19T09:09:15.516Z,26.73
2023-01-19T09:10:15.482Z,26.72
2023-01-19T09:11:15.440Z,26.63
2023-01-19T09:12:15.382Z,26.67
2023-01-19T09:13:15.347Z,26.61
2023-01-19T09:14:15.284Z,26.65
2023-01-19T09:15:15.258Z,26.60
2023-01-19T09:16:15.240Z,26.60
2023-01-19T09:17:15.151Z,26.60
2023-01-19T09:19:15.073Z,26.47
2023-01-19T09:20:15.052Z,25.05
2023-01-19T09:21:15.027Z,24.69
2023-01-19T09:22:14.932Z,24.26
2023-01-19T09:23:14.878Z,23.93
2023-01-19T09:24:14.818Z,23.28
2023-01-19T09:25:14.816Z,22.98
2023-01-19T09:26:14.747Z,22.80
2023-01-19T09:27:14.696Z,22.46
2023-01-19T09:28:14.717Z,22.35
2023-01-19T09:29:14.627Z,22.17
2023-01-19T09:30:14.584Z,21.83
2023-01-19T09:31:14.659Z,22.34
2023-01-19T09:32:14.490Z,23.13
2023-01-19T09:33:14.453Z,23.75
2023-01-19T09:34:14.421Z,23.84
2023-01-19T09:35:14.357Z,23.88
2023-01-19T09:36:14.375Z,23.92
2023-01-19T09:37:14.260Z,23.99
2023-01-19T09:38:14.199Z,24.06
2023-01-19T09:39:14.161Z,23.69
2023-01-19T09:40:14.125Z,23.09
2023-01-19T09:41:14.111Z,23.19
2023-01-19T09:42:14.024Z,23.71
2023-01-19T09:43:13.992Z,23.87
2023-01-19T09:44:14.380Z,23.93
2023-01-19T09:45:13.966Z,23.89
2023-01-19T09:46:13.897Z,24.03
2023-01-19T09:47:13.801Z,23.93
2023-01-19T09:48:13.759Z,23.97
2023-01-19T09:49:13.727Z,22.93
2023-01-19T09:50:13.683Z,23.62
2023-01-19T09:51:13.626Z,25.41
2023-01-19T09:52:13.588Z,25.04
2023-01-19T09:53:13.535Z,25.03
2023-01-19T09:54:13.539Z,25.50
2023-01-19T09:55:13.472Z,25.79
2023-01-19T09:56:13.409Z,25.97
2023-01-19T09:57:13.365Z,26.19
2023-01-19T09:58:13.304Z,26.28
2023-01-19T09:59:13.261Z,26.43
2023-01-19T10:00:13.265Z,26.82
2023-01-19T10:01:13.330Z,26.89
2023-01-19T10:02:13.142Z,27.32
2023-01-19T10:03:13.141Z,27.66
2023-01-19T10:04:13.041Z,27.42
2023-01-19T10:05:13.001Z,27.63
2023-01-19T10:06:12.935Z,27.83
2023-01-19T10:07:12.900Z,27.81
2023-01-19T10:08:12.868Z,28.15
2023-01-19T10:09:12.802Z,28.38
2023-01-19T10:10:12.733Z,28.41
2023-01-19T10:11:12.703Z,28.29
2023-01-19T10:12:12.642Z,28.32
2023-01-19T10:13:12.607Z,28.46
2023-01-19T10:14:12.565Z,28.75
2023-01-19T10:15:12.481Z,28.80
2023-01-19T10:16:12.462Z,28.97
2023-01-19T10:17:12.382Z,28.82
2023-01-19T10:18:12.338Z,29.00
2023-01-19T10:19:12.278Z,28.96
2023-01-19T10:20:12.233Z,29.12
2023-01-19T10:21:12.193Z,29.39
2023-01-19T10:22:12.140Z,29.28
2023-01-19T10:23:12.088Z,29.41
2023-01-19T10:24:12.043Z,29.51
2023-01-19T10:25:11.984Z,29.45
2023-01-19T10:26:11.943Z,29.59
2023-01-19T10:27:11.925Z,29.74
2023-01-19T10:28:11.902Z,29.73
2023-01-19T10:29:11.921Z,29.86
2023-01-19T10:30:11.743Z,29.66
2023-01-19T10:31:11.835Z,29.90
2023-01-19T10:32:11.658Z,29.82
2023-01-19T10:33:11.591Z,30.04
2023-01-19T10:34:11.523Z,29.76
2023-01-19T10:35:11.520Z,30.11
2023-01-19T10:36:11.407Z,30.14
2023-01-19T10:37:11.358Z,30.18
2023-01-19T10:38:11.276Z,30.83
2023-01-19T10:39:11.218Z,30.91
2023-01-19T10:40:11.145Z,31.56
2023-01-19T10:41:11.088Z,31.44
2023-01-19T10:42:11.012Z,30.81
2023-01-19T10:43:10.956Z,30.58
2023-01-19T10:44:10.916Z,30.80
2023-01-19T10:45:10.824Z,30.78
2023-01-19T10:46:10.815Z,20.54
2023-01-19T10:47:10.764Z,18.26
2023-01-19T10:48:10.647Z,17.67
2023-01-19T10:49:10.604Z,16.19
2023-01-19T10:50:10.557Z,17.46
2023-01-19T10:51:10.555Z,17.91
2023-01-19T10:52:10.499Z,17.52
2023-01-19T10:53:10.483Z,18.29
2023-01-19T10:54:10.483Z,18.43
2023-01-19T10:55:10.445Z,17.27
2023-01-19T10:56:10.485Z,17.89
2023-01-19T10:57:10.501Z,18.12
2023-01-19T10:58:10.391Z,17.91
2023-01-19T10:59:10.407Z,17.60
2023-01-19T11:00:10.368Z,17.49
2023-01-19T11:01:10.482Z,17.07
2023-01-19T11:02:10.608Z,17.54
2023-01-19T11:03:10.501Z,17.84
2023-01-19T11:04:10.376Z,17.90
2023-01-19T11:05:10.359Z,17.48
2023-01-19T11:06:10.369Z,17.43
2023-01-19T11:07:10.365Z,18.03
2023-01-19T11:08:10.371Z,18.72
2023-01-19T11:09:10.379Z,19.19
2023-01-19T11:10:10.357Z,19.70
2023-01-19T11:11:10.348Z,20.25
2023-01-19T11:12:10.345Z,20.86
2023-01-19T11:13:10.347Z,21.64
2023-01-19T11:14:10.317Z,22.38
2023-01-19T11:15:10.318Z,22.64
2023-01-19T11:16:12.347Z,23.12
2023-01-19T11:17:10.262Z,23.42
2023-01-19T11:18:10.226Z,23.42
2023-01-19T11:19:10.221Z,23.52
2023-01-19T11:20:10.178Z,23.85
2023-01-19T11:21:10.154Z,23.97
2023-01-19T11:22:10.124Z,24.08
2023-01-19T11:23:10.085Z,24.19
2023-01-19T11:24:10.061Z,24.13
2023-01-19T11:25:10.013Z,24.06
2023-01-19T11:26:09.969Z,24.14
2023-01-19T11:27:09.932Z,24.13
2023-01-19T11:28:09.896Z,24.32
2023-01-19T11:29:09.866Z,24.49
2023-01-19T11:30:09.849Z,24.72
2023-01-19T11:31:09.829Z,24.66
2023-01-19T11:32:09.780Z,24.87
2023-01-19T11:33:09.685Z,25.03
2023-01-19T11:34:09.635Z,25.03
2023-01-19T11:35:09.591Z,25.05
2023-01-19T11:36:09.546Z,25.03
2023-01-19T11:37:09.499Z,25.27
2023-01-19T11:38:09.461Z,25.46
2023-01-19T11:39:09.402Z,25.76
2023-01-19T11:40:09.362Z,25.77
2023-01-19T11:41:09.322Z,21.64
2023-01-19T11:42:09.266Z,19.69
2023-01-19T11:43:09.225Z,16.52
2023-01-19T11:44:09.208Z,16.11
2023-01-19T11:45:09.159Z,17.22
2023-01-19T11:46:09.180Z,18.26
2023-01-19T11:47:09.107Z,19.77
2023-01-19T11:48:09.094Z,20.68
2023-01-19T11:49:09.061Z,21.03
2023-01-19T11:50:09.032Z,21.48
2023-01-19T11:51:09.001Z,22.88
2023-01-19T11:52:08.976Z,24.31
2023-01-19T11:53:08.938Z,25.15
2023-01-19T11:54:08.904Z,25.14
2023-01-19T11:55:08.873Z,24.44
2023-01-19T11:56:08.839Z,25.13
2023-01-19T11:57:08.779Z,24.90
2023-01-19T11:58:08.742Z,25.33
2023-01-19T11:59:08.703Z,25.60
2023-01-19T12:00:08.755Z,25.90
2023-01-19T12:01:08.631Z,26.25
2023-01-19T12:02:08.652Z,26.46
2023-01-19T12:03:08.599Z,26.33
2023-01-19T12:04:08.509Z,26.61
2023-01-19T12:05:08.488Z,26.74
2023-01-19T12:06:08.423Z,26.70
2023-01-19T12:07:08.377Z,26.70
2023-01-19T12:08:08.699Z,26.68
2023-01-19T12:09:08.282Z,26.91
2023-01-19T12:10:08.250Z,26.75
2023-01-19T12:11:08.230Z,27.07
2023-01-19T12:12:08.205Z,27.03
2023-01-19T12:13:08.113Z,26.84
2023-01-19T12:14:08.108Z,25.94
2023-01-19T12:15:08.064Z,23.96
2023-01-19T12:16:07.997Z,23.34
2023-01-19T12:17:07.958Z,22.26
2023-01-19T12:18:07.927Z,22.69
2023-01-19T12:19:07.880Z,19.66
2023-01-19T12:20:07.855Z,19.99
2023-01-19T12:21:07.818Z,18.92
2023-01-19T12:22:07.759Z,18.98
2023-01-19T12:23:07.736Z,20.17
2023-01-19T12:24:07.712Z,22.40
2023-01-19T12:25:07.631Z,22.68
2023-01-19T12:26:07.603Z,23.11
2023-01-19T12:27:07.661Z,23.51
2023-01-19T12:28:07.546Z,23.76
2023-01-19T12:29:07.455Z,24.08
2023-01-19T12:30:07.427Z,24.13
2023-01-19T12:31:07.410Z,24.07
2023-01-19T12:32:07.325Z,23.98
2023-01-19T12:33:07.270Z,24.16
2023-01-19T12:34:07.229Z,24.40
2023-01-19T12:35:07.172Z,24.47
2023-01-19T12:36:07.124Z,24.50
2023-01-19T12:37:07.103Z,24.32
2023-01-19T12:38:07.033Z,24.31
2023-01-19T12:39:06.990Z,24.42
2023-01-19T12:40:06.940Z,24.46
2023-01-19T12:41:06.894Z,24.53
2023-01-19T12:42:06.863Z,24.58
2023-01-19T12:43:06.795Z,24.60
2023-01-19T12:44:06.843Z,24.53
2023-01-19T12:45:06.704Z,24.51
2023-01-19T12:46:06.677Z,24.49
2023-01-19T12:47:06.607Z,24.54
2023-01-19T12:48:06.567Z,24.55
2023-01-19T12:49:06.516Z,24.57
2023-01-19T12:50:06.458Z,24.53
2023-01-19T12:51:06.413Z,24.52
2023-01-19T12:52:06.365Z,24.52
2023-01-19T12:53:06.334Z,24.48
2023-01-19T12:54:06.744Z,24.50
2023-01-19T12:55:06.200Z,24.49
2023-01-19T12:56:06.173Z,24.45
2023-01-19T12:57:06.098Z,24.23
2023-01-19T12:58:06.084Z,24.27
2023-01-19T12:59:06.007Z,24.31
2023-01-19T13:00:05.966Z,24.39
2023-01-19T13:01:05.971Z,24.35
2023-01-19T13:02:05.927Z,24.15
2023-01-19T13:03:05.809Z,23.98
2023-01-19T13:04:06.183Z,24.12
2023-01-19T13:05:05.706Z,24.21
2023-01-19T13:06:05.641Z,24.21
2023-01-19T13:07:05.618Z,24.17
2023-01-19T13:08:05.564Z,23.94
2023-01-19T13:09:05.503Z,23.88
2023-01-19T13:10:05.442Z,23.95
2023-01-19T13:11:05.414Z,24.11
2023-01-19T13:12:05.350Z,24.13
2023-01-19T13:13:05.303Z,24.01
2023-01-19T13:14:05.253Z,23.86
2023-01-19T13:15:05.212Z,23.77
2023-01-19T13:16:05.189Z,23.92
2023-01-19T13:17:05.110Z,23.99
2023-01-19T13:18:05.071Z,23.98
2023-01-19T13:19:05.021Z,23.85
2023-01-19T13:20:05.001Z,23.74
2023-01-19T13:21:04.947Z,23.78
2023-01-19T13:22:04.885Z,23.89
2023-01-19T13:23:04.850Z,23.91
2023-01-19T13:24:04.786Z,23.89
2023-01-19T13:25:04.745Z,23.69
2023-01-19T13:26:04.683Z,23.52
2023-01-19T13:27:04.639Z,23.69
2023-01-19T13:28:04.589Z,23.78
2023-01-19T13:29:04.541Z,23.79
2023-01-19T13:30:04.488Z,23.82
2023-01-19T13:31:04.518Z,23.56
2023-01-19T13:32:04.394Z,23.53
2023-01-19T13:33:04.342Z,23.72
2023-01-19T13:34:04.295Z,23.68
2023-01-19T13:35:04.242Z,23.74
2023-01-19T13:36:04.205Z,23.71
2023-01-19T13:37:04.144Z,23.45
2023-01-19T13:38:04.098Z,23.42
2023-01-19T13:39:04.065Z,23.61
2023-01-19T13:40:03.992Z,23.59
2023-01-19T13:41:03.949Z,23.70
2023-01-19T13:42:03.903Z,23.52
2023-01-19T13:43:03.846Z,23.33
2023-01-19T13:44:03.831Z,23.43
2023-01-19T13:45:03.757Z,23.54
2023-01-19T13:46:03.744Z,23.60
2023-01-19T13:47:03.627Z,23.61
2023-01-19T13:48:03.591Z,23.31